Huntsville, AL (35810)

4:36 PM CDT on August 01, 2015 (GMT -0500)
McThornmore Acres | | Change Station
CLOSE
Current Station
Personal Weather Station
Location: Huntsville, AL
Elevation: 690 ft
Nearby Weather Stations

Elev 690 ft 34.73 °N, 86.63 °W | Updated 4 seconds ago

Clear
Clear
91.3 °F
Feels Like 91 °F
N
2.0
Wind Variable Wind from NE
Gusts 7.0 mph

Today
High -- | Low -- °F
--% Chance of Precip.
Yesterday
High -- | Low -- °F
Precip. -- in
5:56 AM 7:48 PM
Full, 97% visible
Pressure 29.97 in
Visibility 10.0 miles
Clouds Clear
Heat Index 91 °F
Dew Point 61 °F
Humidity 36%
Rainfall in
Snow Depth Not available.
UV 6 out of 12
Pollen 4.30 out of 12
Air Quality Not available.
Flu Activity Not available.
METAR KMDQ 012115Z AUTO 07006KT 10SM CLR 31/11 A2997 RMK AO2

More Conditions Fewer Conditions

Pressure 29.97 in
Visibility 10.0 miles
Clouds Clear
Heat Index 91 °F
Dew Point 61 °F
Humidity 36%
Rainfall in
Snow Depth Not available.
UV 6 out of 12
Pollen 4.30 out of 12
Air Quality Not available.
Flu Activity Not available.
METAR KMDQ 012115Z AUTO 07006KT 10SM CLR 31/11 A2997 RMK AO2

More Conditions Fewer Conditions

10-Day Weather Forecast

×

Almanac

Astronomy

Aug. 01, 2015 Rise Set
Actual Time
Civil Twilight
Nautical Twilight
Astronomical Twilight
Moon
Length of Visible Light
Length of Day
Tomorrow will be .
, % of the Moon is Illuminated

Today's Extremes

State Highs State Lows

Community

WunderPhotos

Upload Photos

1,843,080 photos uploaded!

WunderBlogs® & News

Nearby

Air Quality

  Air Quality AQ Index Pollutant
Not available.

Snow Depth

Station Depth Elevation

Earthquake Activity

City Distance Mag. Time & Date
Minimum magnitude displayed is 2.5.

Coastal Water Temperatures

Place Temperature

Stations

Nearby Weather Stations

Station Location Temp. Windchill Dew Point Humidity Wind Precip. Elev Updated Type